sensor_id;sensor_type;location;lat;lon;timestamp;pressure;altitude;pressure_sealevel;temperature;humidity
22662;BME280;11497;52.222;21.246;2022-08-11T15:01:28;101047.16;;;24.51;42.25
22662;BME280;11497;52.222;21.246;2022-08-11T15:04:15;101046.41;;;24.49;41.90
22662;BME280;11497;52.222;21.246;2022-08-11T15:07:03;101043.50;;;24.52;42.12
22662;BME280;11497;52.222;21.246;2022-08-11T15:09:44;101038.75;;;24.56;42.27
22662;BME280;11497;52.222;21.246;2022-08-11T15:12:34;101037.16;;;24.64;42.18
22662;BME280;11497;52.222;21.246;2022-08-11T15:15:05;101044.63;;;24.81;42.17
22662;BME280;11497;52.222;21.246;2022-08-11T15:17:55;101045.59;;;24.80;41.88
22662;BME280;11497;52.222;21.246;2022-08-11T15:20:28;101043.41;;;24.85;40.86
22662;BME280;11497;52.222;21.246;2022-08-11T15:23:20;101038.28;;;24.82;40.79
22662;BME280;11497;52.222;21.246;2022-08-11T15:26:14;101048.63;;;24.87;40.29
22662;BME280;11497;52.222;21.246;2022-08-11T15:28:47;101045.09;;;24.86;40.76
22662;BME280;11497;52.222;21.246;2022-08-11T15:31:36;101041.81;;;24.83;40.83
22662;BME280;11497;52.222;21.246;2022-08-11T15:34:27;101033.44;;;24.76;41.41
22662;BME280;11497;52.222;21.246;2022-08-11T15:37:15;101023.53;;;24.67;40.49
22662;BME280;11497;52.222;21.246;2022-08-11T15:43:08;101018.72;;;24.71;40.02
22662;BME280;11497;52.222;21.246;2022-08-11T15:45:57;101018.34;;;24.75;40.16
22662;BME280;11497;52.222;21.246;2022-08-11T15:54:31;101027.94;;;24.46;39.80
22662;BME280;11497;52.222;21.246;2022-08-11T15:57:00;101030.88;;;24.43;41.13
22662;BME280;11497;52.222;21.246;2022-08-11T15:59:31;101029.88;;;24.44;41.21
22662;BME280;11497;52.222;21.246;2022-08-11T16:02:21;101025.13;;;24.47;41.38
22662;BME280;11497;52.222;21.246;2022-08-11T16:05:10;101020.88;;;24.45;40.62
22662;BME280;11497;52.222;21.246;2022-08-11T16:07:41;101026.34;;;24.43;40.50
22662;BME280;11497;52.222;21.246;2022-08-11T16:10:16;101026.13;;;24.35;40.67
22662;BME280;11497;52.222;21.246;2022-08-11T16:13:01;101020.91;;;24.34;40.64
22662;BME280;11497;52.222;21.246;2022-08-11T16:15:50;101020.16;;;24.32;40.86
22662;BME280;11497;52.222;21.246;2022-08-11T16:18:45;101017.50;;;24.20;40.79
22662;BME280;11497;52.222;21.246;2022-08-11T16:21:25;101025.28;;;24.12;40.99
22662;BME280;11497;52.222;21.246;2022-08-11T16:24:13;101020.19;;;24.09;41.07
22662;BME280;11497;52.222;21.246;2022-08-11T16:27:03;101017.25;;;24.01;41.15
22662;BME280;11497;52.222;21.246;2022-08-11T16:29:44;101016.28;;;23.91;41.49
22662;BME280;11497;52.222;21.246;2022-08-11T16:32:20;101016.53;;;23.88;41.14
22662;BME280;11497;52.222;21.246;2022-08-11T16:35:00;101018.22;;;23.89;41.26
22662;BME280;11497;52.222;21.246;2022-08-11T16:37:48;101018.00;;;23.81;41.52
22662;BME280;11497;52.222;21.246;2022-08-11T16:40:36;101017.41;;;23.77;41.74
22662;BME280;11497;52.222;21.246;2022-08-11T16:43:07;101017.16;;;23.69;42.35
22662;BME280;11497;52.222;21.246;2022-08-11T16:45:56;101012.50;;;23.60;42.43
22662;BME280;11497;52.222;21.246;2022-08-11T16:48:47;101010.94;;;23.58;43.04
22662;BME280;11497;52.222;21.246;2022-08-11T16:51:16;101016.81;;;23.50;43.29
22662;BME280;11497;52.222;21.246;2022-08-11T16:53:49;101013.41;;;23.48;43.19
22662;BME280;11497;52.222;21.246;2022-08-11T16:56:39;101026.06;;;23.46;43.45
22662;BME280;11497;52.222;21.246;2022-08-11T16:59:18;101025.19;;;23.45;43.80
22662;BME280;11497;52.222;21.246;2022-08-11T17:01:55;101020.25;;;23.52;43.57
22662;BME280;11497;52.222;21.246;2022-08-11T17:04:44;101020.16;;;23.65;43.47
22662;BME280;11497;52.222;21.246;2022-08-11T17:07:32;101016.78;;;23.63;43.56
22662;BME280;11497;52.222;21.246;2022-08-11T17:10:26;101014.84;;;23.65;43.56
22662;BME280;11497;52.222;21.246;2022-08-11T17:13:29;101018.22;;;23.67;43.57
22662;BME280;11497;52.222;21.246;2022-08-11T17:16:02;101014.09;;;23.63;43.22
22662;BME280;11497;52.222;21.246;2022-08-11T17:18:39;101013.97;;;23.64;43.36
22662;BME280;11497;52.222;21.246;2022-08-11T17:23:53;101019.94;;;23.68;43.43
22662;BME280;11497;52.222;21.246;2022-08-11T17:26:45;101026.25;;;23.67;43.71
22662;BME280;11497;52.222;21.246;2022-08-11T17:32:30;101035.50;;;23.74;45.00
22662;BME280;11497;52.222;21.246;2022-08-11T17:35:45;101040.81;;;23.63;46.14
22662;BME280;11497;52.222;21.246;2022-08-11T17:38:19;101051.75;;;23.60;46.69
22662;BME280;11497;52.222;21.246;2022-08-11T17:41:00;101058.72;;;23.49;47.25
22662;BME280;11497;52.222;21.246;2022-08-11T17:43:51;101057.25;;;23.34;47.50
22662;BME280;11497;52.222;21.246;2022-08-11T17:46:39;101062.53;;;23.23;47.92
22662;BME280;11497;52.222;21.246;2022-08-11T17:49:34;101062.59;;;23.10;48.39
22662;BME280;11497;52.222;21.246;2022-08-11T17:52:06;101067.31;;;23.07;48.50
22662;BME280;11497;52.222;21.246;2022-08-11T17:54:53;101064.84;;;22.93;49.47
22662;BME280;11497;52.222;21.246;2022-08-11T17:57:42;101060.59;;;22.77;50.13
22662;BME280;11497;52.222;21.246;2022-08-11T18:00:29;101060.88;;;22.62;50.49
22662;BME280;11497;52.222;21.246;2022-08-11T18:03:00;101062.84;;;22.47;51.45
22662;BME280;11497;52.222;21.246;2022-08-11T18:05:46;101063.00;;;22.33;52.62
22662;BME280;11497;52.222;21.246;2022-08-11T18:08:18;101068.88;;;22.12;53.23
22662;BME280;11497;52.222;21.246;2022-08-11T18:11:07;101061.41;;;21.92;53.81
22662;BME280;11497;52.222;21.246;2022-08-11T18:14:15;101058.97;;;21.76;54.86
22662;BME280;11497;52.222;21.246;2022-08-11T18:17:04;101058.22;;;21.62;55.36
22662;BME280;11497;52.222;21.246;2022-08-11T18:19:51;101064.09;;;21.54;55.85
22662;BME280;11497;52.222;21.246;2022-08-11T18:22:41;101061.94;;;21.46;56.57
22662;BME280;11497;52.222;21.246;2022-08-11T18:25:39;101059.00;;;21.24;57.03
22662;BME280;11497;52.222;21.246;2022-08-11T18:28:34;101080.91;;;21.15;57.52
22662;BME280;11497;52.222;21.246;2022-08-11T18:31:24;101074.19;;;21.09;58.31
22662;BME280;11497;52.222;21.246;2022-08-11T18:34:15;101075.75;;;20.99;58.64
22662;BME280;11497;52.222;21.246;2022-08-11T18:37:04;101080.00;;;21.02;58.50
22662;BME280;11497;52.222;21.246;2022-08-11T18:40:07;101076.19;;;21.06;58.71
22662;BME280;11497;52.222;21.246;2022-08-11T18:42:59;101074.53;;;20.90;58.82
22662;BME280;11497;52.222;21.246;2022-08-11T18:45:59;101063.75;;;20.79;59.20
22662;BME280;11497;52.222;21.246;2022-08-11T18:49:02;101075.00;;;20.70;59.44
22662;BME280;11497;52.222;21.246;2022-08-11T18:52:03;101073.31;;;20.82;60.39
22662;BME280;11497;52.222;21.246;2022-08-11T18:54:56;101073.41;;;20.80;60.52
22662;BME280;11497;52.222;21.246;2022-08-11T18:57:47;101075.38;;;20.64;61.00
22662;BME280;11497;52.222;21.246;2022-08-11T19:00:36;101091.34;;;20.50;61.66
22662;BME280;11497;52.222;21.246;2022-08-11T19:03:24;101083.84;;;20.56;61.78
22662;BME280;11497;52.222;21.246;2022-08-11T19:06:19;101106.34;;;20.51;62.22
22662;BME280;11497;52.222;21.246;2022-08-11T19:09:13;101097.81;;;20.46;62.42
22662;BME280;11497;52.222;21.246;2022-08-11T19:12:00;101099.91;;;20.41;62.73
22662;BME280;11497;52.222;21.246;2022-08-11T19:14:50;101095.06;;;20.33;63.25
22662;BME280;11497;52.222;21.246;2022-08-11T19:17:41;101092.13;;;20.23;63.40
22662;BME280;11497;52.222;21.246;2022-08-11T19:20:32;101090.97;;;20.13;64.00
22662;BME280;11497;52.222;21.246;2022-08-11T19:23:41;101087.94;;;20.05;64.31
22662;BME280;11497;52.222;21.246;2022-08-11T19:26:30;101089.28;;;20.12;64.63
22662;BME280;11497;52.222;21.246;2022-08-11T19:29:22;101090.88;;;20.01;65.10
22662;BME280;11497;52.222;21.246;2022-08-11T19:32:29;101090.22;;;19.97;65.53
22662;BME280;11497;52.222;21.246;2022-08-11T19:35:16;101089.66;;;19.92;65.68
22662;BME280;11497;52.222;21.246;2022-08-11T19:38:04;101093.44;;;19.88;66.26
22662;BME280;11497;52.222;21.246;2022-08-11T19:40:51;101095.72;;;19.80;66.48
22662;BME280;11497;52.222;21.246;2022-08-11T19:43:43;101095.13;;;19.75;66.73
22662;BME280;11497;52.222;21.246;2022-08-11T19:46:30;101095.50;;;19.69;67.21
22662;BME280;11497;52.222;21.246;2022-08-11T19:49:18;101096.81;;;19.62;67.61
22662;BME280;11497;52.222;21.246;2022-08-11T19:52:05;101088.06;;;19.59;67.85
22662;BME280;11497;52.222;21.246;2022-08-11T19:54:52;101084.56;;;19.59;67.65
22662;BME280;11497;52.222;21.246;2022-08-11T19:57:39;101082.38;;;19.51;67.59
22662;BME280;11497;52.222;21.246;2022-08-11T20:00:28;101087.19;;;19.45;68.08
22662;BME280;11497;52.222;21.246;2022-08-11T20:03:15;101079.84;;;19.34;68.58
22662;BME280;11497;52.222;21.246;2022-08-11T20:06:05;101075.22;;;19.38;69.11
22662;BME280;11497;52.222;21.246;2022-08-11T20:08:55;101074.84;;;19.44;69.57
22662;BME280;11497;52.222;21.246;2022-08-11T20:11:48;101074.72;;;19.31;69.91
22662;BME280;11497;52.222;21.246;2022-08-11T20:14:38;101072.00;;;19.17;70.23
22662;BME280;11497;52.222;21.246;2022-08-11T20:17:27;101067.72;;;19.14;70.59
22662;BME280;11497;52.222;21.246;2022-08-11T20:20:15;101070.63;;;19.10;70.74
22662;BME280;11497;52.222;21.246;2022-08-11T20:23:05;101071.97;;;19.03;70.96
22662;BME280;11497;52.222;21.246;2022-08-11T20:25:56;101067.94;;;18.96;71.06
22662;BME280;11497;52.222;21.246;2022-08-11T20:28:59;101069.16;;;18.90;71.17
22662;BME280;11497;52.222;21.246;2022-08-11T20:31:46;101078.06;;;18.89;71.28
22662;BME280;11497;52.222;21.246;2022-08-11T20:34:37;101081.66;;;18.88;71.59
22662;BME280;11497;52.222;21.246;2022-08-11T20:37:26;101078.75;;;18.92;71.77
22662;BME280;11497;52.222;21.246;2022-08-11T20:40:19;101078.22;;;19.02;71.67
22662;BME280;11497;52.222;21.246;2022-08-11T20:43:10;101067.44;;;19.05;71.40
22662;BME280;11497;52.222;21.246;2022-08-11T20:46:18;101072.91;;;19.02;71.27
22662;BME280;11497;52.222;21.246;2022-08-11T20:49:09;101079.25;;;18.99;71.22
22662;BME280;11497;52.222;21.246;2022-08-11T20:52:17;101069.50;;;19.00;71.47
22662;BME280;11497;52.222;21.246;2022-08-11T20:55:06;101064.09;;;19.01;71.61
22662;BME280;11497;52.222;21.246;2022-08-11T20:58:15;101074.31;;;19.07;71.75
22662;BME280;11497;52.222;21.246;2022-08-11T21:01:24;101071.50;;;19.10;71.80
22662;BME280;11497;52.222;21.246;2022-08-11T21:04:11;101070.28;;;19.16;70.79
22662;BME280;11497;52.222;21.246;2022-08-11T21:07:03;101069.44;;;19.15;70.29
22662;BME280;11497;52.222;21.246;2022-08-11T21:10:09;101073.88;;;19.15;69.93
22662;BME280;11497;52.222;21.246;2022-08-11T21:12:57;101068.56;;;19.15;69.50
22662;BME280;11497;52.222;21.246;2022-08-11T21:16:02;101081.06;;;19.13;69.69
22662;BME280;11497;52.222;21.246;2022-08-11T21:19:14;101082.78;;;19.14;69.82
22662;BME280;11497;52.222;21.246;2022-08-11T21:22:29;101089.47;;;19.21;69.90
22662;BME280;11497;52.222;21.246;2022-08-11T21:25:39;101082.31;;;19.37;68.92
22662;BME280;11497;52.222;21.246;2022-08-11T21:28:30;101084.84;;;19.54;67.32
22662;BME280;11497;52.222;21.246;2022-08-11T21:31:18;101081.25;;;19.55;66.96
22662;BME280;11497;52.222;21.246;2022-08-11T21:34:05;101078.22;;;19.62;66.48
22662;BME280;11497;52.222;21.246;2022-08-11T21:36:53;101084.34;;;19.48;66.81
22662;BME280;11497;52.222;21.246;2022-08-11T21:39:41;101082.13;;;19.40;67.13
22662;BME280;11497;52.222;21.246;2022-08-11T21:42:30;101088.31;;;19.41;67.40
22662;BME280;11497;52.222;21.246;2022-08-11T21:45:17;101082.41;;;19.36;67.61
22662;BME280;11497;52.222;21.246;2022-08-11T21:48:06;101085.28;;;19.47;67.49
22662;BME280;11497;52.222;21.246;2022-08-11T21:50:53;101085.94;;;19.50;67.09
22662;BME280;11497;52.222;21.246;2022-08-11T21:53:41;101083.72;;;19.58;66.80
22662;BME280;11497;52.222;21.246;2022-08-11T21:56:28;101089.59;;;19.64;66.74
22662;BME280;11497;52.222;21.246;2022-08-11T21:59:20;101084.88;;;19.69;66.03
22662;BME280;11497;52.222;21.246;2022-08-11T22:02:09;101092.44;;;19.60;66.26
22662;BME280;11497;52.222;21.246;2022-08-11T22:04:55;101086.94;;;19.64;66.69
22662;BME280;11497;52.222;21.246;2022-08-11T22:07:42;101091.13;;;19.68;66.20
22662;BME280;11497;52.222;21.246;2022-08-11T22:10:29;101081.47;;;19.67;66.33
22662;BME280;11497;52.222;21.246;2022-08-11T22:13:15;101085.41;;;19.59;66.10
22662;BME280;11497;52.222;21.246;2022-08-11T22:16:02;101084.06;;;19.52;66.56
22662;BME280;11497;52.222;21.246;2022-08-11T22:18:50;101081.97;;;19.43;67.15
22662;BME280;11497;52.222;21.246;2022-08-11T22:21:39;101079.31;;;19.43;67.46
22662;BME280;11497;52.222;21.246;2022-08-11T22:24:32;101080.84;;;19.47;67.30
22662;BME280;11497;52.222;21.246;2022-08-11T22:27:20;101078.19;;;19.47;67.49
22662;BME280;11497;52.222;21.246;2022-08-11T22:30:09;101085.59;;;19.56;67.49
22662;BME280;11497;52.222;21.246;2022-08-11T22:32:57;101077.00;;;19.67;66.70
22662;BME280;11497;52.222;21.246;2022-08-11T22:35:55;101075.88;;;19.71;66.10
22662;BME280;11497;52.222;21.246;2022-08-11T22:38:44;101082.41;;;19.66;66.34
22662;BME280;11497;52.222;21.246;2022-08-11T22:41:32;101075.97;;;19.70;66.02
22662;BME280;11497;52.222;21.246;2022-08-11T22:44:19;101076.16;;;19.67;65.77
22662;BME280;11497;52.222;21.246;2022-08-11T22:47:08;101075.97;;;19.70;65.48
22662;BME280;11497;52.222;21.246;2022-08-11T22:50:08;101086.22;;;19.76;65.20
22662;BME280;11497;52.222;21.246;2022-08-11T22:52:55;101066.50;;;19.80;64.83
22662;BME280;11497;52.222;21.246;2022-08-11T22:55:43;101068.56;;;19.75;64.63
22662;BME280;11497;52.222;21.246;2022-08-11T22:58:31;101074.16;;;19.70;64.38
22662;BME280;11497;52.222;21.246;2022-08-11T23:01:18;101071.78;;;19.66;64.74
22662;BME280;11497;52.222;21.246;2022-08-11T23:04:22;101075.19;;;19.68;64.15
22662;BME280;11497;52.222;21.246;2022-08-11T23:07:09;101064.41;;;19.71;64.26
22662;BME280;11497;52.222;21.246;2022-08-11T23:10:17;101057.81;;;19.62;63.81
22662;BME280;11497;52.222;21.246;2022-08-11T23:13:04;101058.78;;;19.61;63.58
22662;BME280;11497;52.222;21.246;2022-08-11T23:15:55;101061.72;;;19.71;63.18
22662;BME280;11497;52.222;21.246;2022-08-11T23:18:42;101055.75;;;19.67;62.98
22662;BME280;11497;52.222;21.246;2022-08-11T23:21:30;101051.84;;;19.58;63.05
22662;BME280;11497;52.222;21.246;2022-08-11T23:24:19;101052.88;;;19.56;62.76
22662;BME280;11497;52.222;21.246;2022-08-11T23:27:08;101054.97;;;19.51;62.83
22662;BME280;11497;52.222;21.246;2022-08-11T23:29:57;101050.91;;;19.30;63.06
22662;BME280;11497;52.222;21.246;2022-08-11T23:32:51;101044.47;;;19.34;63.46
22662;BME280;11497;52.222;21.246;2022-08-11T23:35:41;101039.44;;;19.29;63.32
22662;BME280;11497;52.222;21.246;2022-08-11T23:38:32;101046.28;;;19.33;63.11
22662;BME280;11497;52.222;21.246;2022-08-11T23:41:20;101038.91;;;19.38;62.97
22662;BME280;11497;52.222;21.246;2022-08-11T23:44:07;101039.25;;;19.32;63.12
22662;BME280;11497;52.222;21.246;2022-08-11T23:46:57;101034.50;;;19.23;63.04
22662;BME280;11497;52.222;21.246;2022-08-11T23:49:46;101039.97;;;19.20;63.21
22662;BME280;11497;52.222;21.246;2022-08-11T23:52:34;101037.78;;;19.12;63.26
22662;BME280;11497;52.222;21.246;2022-08-11T23:55:22;101031.59;;;19.12;63.53
22662;BME280;11497;52.222;21.246;2022-08-11T23:58:10;101040.06;;;19.18;63.23
